Terminal Aerodrome Forecast
Issued by NWS Greer, SC

Home | Current Version | Previous Version | Text Only | Print | Product List | Glossary On
Versions: 1 2 3 4 5 6 7 8 9 10 11 12 13 14 15 16 17 18 19 20 21 22 23 24 25 26 27 28 29 30 31 32 33 34 35 36 37 38
000
FTUS42 KGSP 260540
TAFAVL
TAF
KAVL 260540Z 2606/2706 VRB03KT P6SM -RA OVC050
     FM260800 32006KT 4SM -RA OVC027
     FM261000 32007KT 3SM -RASN BR OVC014
      TEMPO 2610/2612 2SM RASN SCT007 OVC012
     FM261600 31008KT P6SM OVC045
     FM262300 32004KT P6SM BKN060=

USA.gov is the U.S. government's official web portal to all federal, state and local government web resources and services.